sensor_id;sensor_type;location;lat;lon;timestamp;P1;durP1;ratioP1;P2;durP2;ratioP2
58972;SDS011;44750;52.040;7.472;2022-08-19T00:02:56;13.05;;;7.40;;
58972;SDS011;44750;52.040;7.472;2022-08-19T00:07:58;11.75;;;7.32;;
58972;SDS011;44750;52.040;7.472;2022-08-19T00:12:59;10.60;;;7.72;;
58972;SDS011;44750;52.040;7.472;2022-08-19T00:17:59;14.30;;;8.20;;
58972;SDS011;44750;52.040;7.472;2022-08-19T00:23:00;12.27;;;7.90;;
58972;SDS011;44750;52.040;7.472;2022-08-19T00:28:00;13.02;;;8.73;;
58972;SDS011;44750;52.040;7.472;2022-08-19T00:33:00;15.05;;;9.18;;
58972;SDS011;44750;52.040;7.472;2022-08-19T00:38:00;12.90;;;8.43;;
58972;SDS011;44750;52.040;7.472;2022-08-19T00:43:01;12.53;;;8.70;;
58972;SDS011;44750;52.040;7.472;2022-08-19T00:48:07;15.02;;;9.50;;
58972;SDS011;44750;52.040;7.472;2022-08-19T00:53:09;13.25;;;9.35;;
58972;SDS011;44750;52.040;7.472;2022-08-19T00:58:12;13.18;;;9.15;;
58972;SDS011;44750;52.040;7.472;2022-08-19T01:03:16;16.17;;;9.00;;
58972;SDS011;44750;52.040;7.472;2022-08-19T01:08:18;13.75;;;9.35;;
58972;SDS011;44750;52.040;7.472;2022-08-19T01:13:21;17.45;;;9.85;;
58972;SDS011;44750;52.040;7.472;2022-08-19T01:18:28;16.02;;;10.07;;
58972;SDS011;44750;52.040;7.472;2022-08-19T01:23:30;15.90;;;10.30;;
58972;SDS011;44750;52.040;7.472;2022-08-19T01:28:30;14.32;;;10.20;;
58972;SDS011;44750;52.040;7.472;2022-08-19T01:33:30;15.07;;;10.45;;
58972;SDS011;44750;52.040;7.472;2022-08-19T01:38:34;18.23;;;10.73;;
58972;SDS011;44750;52.040;7.472;2022-08-19T01:43:36;14.50;;;10.73;;
58972;SDS011;44750;52.040;7.472;2022-08-19T01:48:39;15.38;;;10.90;;
58972;SDS011;44750;52.040;7.472;2022-08-19T01:53:40;14.10;;;10.13;;
58972;SDS011;44750;52.040;7.472;2022-08-19T01:58:53;17.10;;;10.35;;
58972;SDS011;44750;52.040;7.472;2022-08-19T02:03:58;17.60;;;11.15;;
58972;SDS011;44750;52.040;7.472;2022-08-19T02:08:58;18.60;;;10.55;;
58972;SDS011;44750;52.040;7.472;2022-08-19T02:14:00;20.23;;;11.40;;
58972;SDS011;44750;52.040;7.472;2022-08-19T02:19:02;16.02;;;11.43;;
58972;SDS011;44750;52.040;7.472;2022-08-19T02:24:04;16.63;;;11.68;;
58972;SDS011;44750;52.040;7.472;2022-08-19T02:29:04;17.50;;;12.27;;
58972;SDS011;44750;52.040;7.472;2022-08-19T02:34:05;21.53;;;12.83;;
58972;SDS011;44750;52.040;7.472;2022-08-19T02:39:05;20.13;;;12.77;;
58972;SDS011;44750;52.040;7.472;2022-08-19T02:44:05;18.10;;;12.73;;
58972;SDS011;44750;52.040;7.472;2022-08-19T02:49:06;17.80;;;12.15;;
58972;SDS011;44750;52.040;7.472;2022-08-19T02:54:07;24.38;;;12.27;;
58972;SDS011;44750;52.040;7.472;2022-08-19T02:59:08;18.15;;;12.18;;
58972;SDS011;44750;52.040;7.472;2022-08-19T03:04:10;16.90;;;11.17;;
58972;SDS011;44750;52.040;7.472;2022-08-19T03:09:13;16.42;;;11.05;;
58972;SDS011;44750;52.040;7.472;2022-08-19T03:14:14;13.45;;;10.90;;
58972;SDS011;44750;52.040;7.472;2022-08-19T03:19:15;15.40;;;10.50;;
58972;SDS011;44750;52.040;7.472;2022-08-19T03:24:17;15.30;;;11.15;;
58972;SDS011;44750;52.040;7.472;2022-08-19T03:29:19;18.67;;;11.68;;
58972;SDS011;44750;52.040;7.472;2022-08-19T03:34:26;18.33;;;11.60;;
58972;SDS011;44750;52.040;7.472;2022-08-19T03:39:29;16.30;;;11.98;;
58972;SDS011;44750;52.040;7.472;2022-08-19T03:44:29;18.90;;;12.95;;
58972;SDS011;44750;52.040;7.472;2022-08-19T03:49:31;22.05;;;14.20;;
58972;SDS011;44750;52.040;7.472;2022-08-19T03:54:32;23.00;;;16.95;;
58972;SDS011;44750;52.040;7.472;2022-08-19T03:59:33;23.25;;;18.50;;
58972;SDS011;44750;52.040;7.472;2022-08-19T04:04:37;26.03;;;18.07;;
58972;SDS011;44750;52.040;7.472;2022-08-19T04:09:38;24.67;;;18.02;;
58972;SDS011;44750;52.040;7.472;2022-08-19T04:14:38;22.92;;;15.80;;
58972;SDS011;44750;52.040;7.472;2022-08-19T04:19:39;24.88;;;16.70;;
58972;SDS011;44750;52.040;7.472;2022-08-19T04:24:39;24.50;;;16.48;;
58972;SDS011;44750;52.040;7.472;2022-08-19T04:29:39;25.83;;;19.65;;
58972;SDS011;44750;52.040;7.472;2022-08-19T04:34:40;28.58;;;17.77;;
58972;SDS011;44750;52.040;7.472;2022-08-19T04:39:40;27.15;;;19.02;;
58972;SDS011;44750;52.040;7.472;2022-08-19T04:44:40;29.25;;;17.77;;
58972;SDS011;44750;52.040;7.472;2022-08-19T04:49:40;28.95;;;17.90;;
58972;SDS011;44750;52.040;7.472;2022-08-19T04:54:40;25.23;;;17.92;;
58972;SDS011;44750;52.040;7.472;2022-08-19T04:59:41;25.98;;;17.20;;
58972;SDS011;44750;52.040;7.472;2022-08-19T05:04:41;26.30;;;16.70;;
58972;SDS011;44750;52.040;7.472;2022-08-19T05:09:41;25.50;;;16.70;;
58972;SDS011;44750;52.040;7.472;2022-08-19T05:14:41;26.52;;;17.15;;
58972;SDS011;44750;52.040;7.472;2022-08-19T05:19:42;23.30;;;16.63;;
58972;SDS011;44750;52.040;7.472;2022-08-19T05:24:42;27.30;;;17.63;;
58972;SDS011;44750;52.040;7.472;2022-08-19T05:29:42;26.52;;;17.20;;
58972;SDS011;44750;52.040;7.472;2022-08-19T05:34:42;23.33;;;17.25;;
58972;SDS011;44750;52.040;7.472;2022-08-19T05:39:46;29.75;;;17.27;;
58972;SDS011;44750;52.040;7.472;2022-08-19T05:44:46;30.93;;;17.20;;
58972;SDS011;44750;52.040;7.472;2022-08-19T05:49:46;24.92;;;16.90;;
58972;SDS011;44750;52.040;7.472;2022-08-19T05:54:49;26.42;;;16.88;;
58972;SDS011;44750;52.040;7.472;2022-08-19T05:59:49;24.98;;;16.65;;
58972;SDS011;44750;52.040;7.472;2022-08-19T06:04:50;23.70;;;16.52;;
58972;SDS011;44750;52.040;7.472;2022-08-19T06:09:50;32.78;;;16.05;;
58972;SDS011;44750;52.040;7.472;2022-08-19T06:14:50;25.45;;;15.38;;
58972;SDS011;44750;52.040;7.472;2022-08-19T06:19:51;26.02;;;14.55;;
58972;SDS011;44750;52.040;7.472;2022-08-19T06:24:51;21.13;;;14.43;;
58972;SDS011;44750;52.040;7.472;2022-08-19T06:29:52;25.60;;;14.68;;
58972;SDS011;44750;52.040;7.472;2022-08-19T06:34:52;22.83;;;13.95;;
58972;SDS011;44750;52.040;7.472;2022-08-19T06:39:52;18.73;;;12.70;;
58972;SDS011;44750;52.040;7.472;2022-08-19T06:44:53;18.27;;;10.85;;
58972;SDS011;44750;52.040;7.472;2022-08-19T06:49:54;18.23;;;11.38;;
58972;SDS011;44750;52.040;7.472;2022-08-19T06:54:55;21.27;;;11.05;;
58972;SDS011;44750;52.040;7.472;2022-08-19T06:59:55;19.75;;;12.07;;
58972;SDS011;44750;52.040;7.472;2022-08-19T07:04:56;22.77;;;12.60;;
58972;SDS011;44750;52.040;7.472;2022-08-19T07:09:56;18.67;;;12.30;;
58972;SDS011;44750;52.040;7.472;2022-08-19T07:14:56;17.77;;;11.80;;
58972;SDS011;44750;52.040;7.472;2022-08-19T07:19:58;16.35;;;10.68;;
58972;SDS011;44750;52.040;7.472;2022-08-19T07:24:58;22.83;;;11.15;;
58972;SDS011;44750;52.040;7.472;2022-08-19T07:29:58;17.85;;;11.18;;
58972;SDS011;44750;52.040;7.472;2022-08-19T07:34:58;13.93;;;9.80;;
58972;SDS011;44750;52.040;7.472;2022-08-19T07:39:59;14.48;;;9.00;;
58972;SDS011;44750;52.040;7.472;2022-08-19T07:45:00;9.77;;;6.05;;
58972;SDS011;44750;52.040;7.472;2022-08-19T07:50:03;8.02;;;5.10;;
58972;SDS011;44750;52.040;7.472;2022-08-19T07:55:04;9.65;;;5.60;;
58972;SDS011;44750;52.040;7.472;2022-08-19T08:00:06;8.30;;;5.50;;
58972;SDS011;44750;52.040;7.472;2022-08-19T08:05:09;7.95;;;5.93;;
58972;SDS011;44750;52.040;7.472;2022-08-19T08:10:15;12.02;;;5.70;;
58972;SDS011;44750;52.040;7.472;2022-08-19T08:15:15;9.23;;;5.72;;
58972;SDS011;44750;52.040;7.472;2022-08-19T08:20:16;8.95;;;5.05;;
58972;SDS011;44750;52.040;7.472;2022-08-19T08:25:18;8.23;;;5.45;;
58972;SDS011;44750;52.040;7.472;2022-08-19T08:30:23;7.20;;;5.50;;
58972;SDS011;44750;52.040;7.472;2022-08-19T08:35:24;13.07;;;5.40;;
58972;SDS011;44750;52.040;7.472;2022-08-19T08:45:51;7.63;;;5.20;;
58972;SDS011;44750;52.040;7.472;2022-08-19T08:50:56;10.35;;;6.57;;
58972;SDS011;44750;52.040;7.472;2022-08-19T08:56:00;7.82;;;5.68;;
58972;SDS011;44750;52.040;7.472;2022-08-19T09:01:03;7.95;;;5.70;;
58972;SDS011;44750;52.040;7.472;2022-08-19T09:11:05;6.03;;;4.93;;
58972;SDS011;44750;52.040;7.472;2022-08-19T09:16:10;7.97;;;5.10;;
58972;SDS011;44750;52.040;7.472;2022-08-19T09:21:14;9.93;;;5.43;;
58972;SDS011;44750;52.040;7.472;2022-08-19T09:26:18;5.88;;;4.60;;
58972;SDS011;44750;52.040;7.472;2022-08-19T09:31:23;8.57;;;4.78;;
58972;SDS011;44750;52.040;7.472;2022-08-19T09:36:25;6.57;;;5.07;;
58972;SDS011;44750;52.040;7.472;2022-08-19T09:41:27;5.57;;;4.35;;
58972;SDS011;44750;52.040;7.472;2022-08-19T09:46:28;8.93;;;5.00;;
58972;SDS011;44750;52.040;7.472;2022-08-19T09:51:29;6.57;;;4.25;;
58972;SDS011;44750;52.040;7.472;2022-08-19T09:56:29;5.33;;;3.77;;
58972;SDS011;44750;52.040;7.472;2022-08-19T10:01:31;5.18;;;3.65;;
58972;SDS011;44750;52.040;7.472;2022-08-19T10:06:32;4.85;;;3.20;;
58972;SDS011;44750;52.040;7.472;2022-08-19T10:11:32;8.60;;;3.00;;
58972;SDS011;44750;52.040;7.472;2022-08-19T10:16:36;4.50;;;3.50;;
58972;SDS011;44750;52.040;7.472;2022-08-19T10:21:37;3.97;;;3.00;;
58972;SDS011;44750;52.040;7.472;2022-08-19T10:26:38;6.00;;;3.75;;
58972;SDS011;44750;52.040;7.472;2022-08-19T10:31:40;6.80;;;4.97;;
58972;SDS011;44750;52.040;7.472;2022-08-19T10:36:40;6.05;;;4.05;;
58972;SDS011;44750;52.040;7.472;2022-08-19T10:41:40;6.85;;;3.97;;
58972;SDS011;44750;52.040;7.472;2022-08-19T10:46:44;5.97;;;3.22;;
58972;SDS011;44750;52.040;7.472;2022-08-19T10:56:44;4.32;;;3.33;;
58972;SDS011;44750;52.040;7.472;2022-08-19T11:01:45;7.23;;;3.43;;
58972;SDS011;44750;52.040;7.472;2022-08-19T11:06:47;3.72;;;3.17;;
58972;SDS011;44750;52.040;7.472;2022-08-19T11:11:48;5.63;;;3.63;;
58972;SDS011;44750;52.040;7.472;2022-08-19T11:16:48;4.40;;;3.72;;
58972;SDS011;44750;52.040;7.472;2022-08-19T11:21:50;5.85;;;4.30;;
58972;SDS011;44750;52.040;7.472;2022-08-19T11:26:52;7.63;;;4.70;;
58972;SDS011;44750;52.040;7.472;2022-08-19T11:31:54;6.38;;;5.00;;
58972;SDS011;44750;52.040;7.472;2022-08-19T11:36:54;11.70;;;6.72;;
58972;SDS011;44750;52.040;7.472;2022-08-19T11:41:57;10.30;;;7.22;;
58972;SDS011;44750;52.040;7.472;2022-08-19T11:46:58;9.02;;;6.82;;
58972;SDS011;44750;52.040;7.472;2022-08-19T11:51:58;8.10;;;5.70;;
58972;SDS011;44750;52.040;7.472;2022-08-19T11:56:59;9.73;;;6.00;;
58972;SDS011;44750;52.040;7.472;2022-08-19T12:01:59;8.82;;;6.80;;
58972;SDS011;44750;52.040;7.472;2022-08-19T12:06:59;10.43;;;7.97;;
58972;SDS011;44750;52.040;7.472;2022-08-19T12:12:00;9.90;;;7.53;;
58972;SDS011;44750;52.040;7.472;2022-08-19T12:17:00;7.10;;;6.05;;
58972;SDS011;44750;52.040;7.472;2022-08-19T12:22:01;9.52;;;5.43;;
58972;SDS011;44750;52.040;7.472;2022-08-19T12:27:01;12.60;;;5.60;;
58972;SDS011;44750;52.040;7.472;2022-08-19T12:32:02;6.20;;;5.30;;
58972;SDS011;44750;52.040;7.472;2022-08-19T12:37:03;7.78;;;5.07;;
58972;SDS011;44750;52.040;7.472;2022-08-19T12:42:05;6.30;;;5.40;;
58972;SDS011;44750;52.040;7.472;2022-08-19T12:47:05;7.07;;;5.03;;
58972;SDS011;44750;52.040;7.472;2022-08-19T12:52:06;8.00;;;5.05;;
58972;SDS011;44750;52.040;7.472;2022-08-19T12:57:08;6.00;;;5.40;;
58972;SDS011;44750;52.040;7.472;2022-08-19T13:02:10;5.10;;;4.60;;
58972;SDS011;44750;52.040;7.472;2022-08-19T13:07:10;6.68;;;5.30;;
58972;SDS011;44750;52.040;7.472;2022-08-19T13:12:10;9.43;;;5.40;;
58972;SDS011;44750;52.040;7.472;2022-08-19T13:17:11;7.00;;;5.88;;
58972;SDS011;44750;52.040;7.472;2022-08-19T13:22:11;6.13;;;4.38;;
58972;SDS011;44750;52.040;7.472;2022-08-19T13:27:11;7.85;;;4.60;;
58972;SDS011;44750;52.040;7.472;2022-08-19T13:32:12;9.57;;;4.90;;
58972;SDS011;44750;52.040;7.472;2022-08-19T13:37:12;7.60;;;5.30;;
58972;SDS011;44750;52.040;7.472;2022-08-19T13:42:12;7.90;;;5.57;;
58972;SDS011;44750;52.040;7.472;2022-08-19T13:47:13;8.05;;;4.95;;
58972;SDS011;44750;52.040;7.472;2022-08-19T13:52:13;8.07;;;6.65;;
58972;SDS011;44750;52.040;7.472;2022-08-19T13:57:13;7.32;;;5.53;;
58972;SDS011;44750;52.040;7.472;2022-08-19T14:02:14;6.68;;;5.85;;
58972;SDS011;44750;52.040;7.472;2022-08-19T14:07:14;7.43;;;5.32;;
58972;SDS011;44750;52.040;7.472;2022-08-19T14:12:17;9.25;;;5.60;;
58972;SDS011;44750;52.040;7.472;2022-08-19T14:17:20;6.68;;;5.10;;
58972;SDS011;44750;52.040;7.472;2022-08-19T14:22:20;7.38;;;5.32;;
58972;SDS011;44750;52.040;7.472;2022-08-19T14:27:20;6.70;;;5.13;;
58972;SDS011;44750;52.040;7.472;2022-08-19T14:32:20;7.28;;;5.35;;
58972;SDS011;44750;52.040;7.472;2022-08-19T14:37:21;6.30;;;4.60;;
58972;SDS011;44750;52.040;7.472;2022-08-19T14:42:21;5.83;;;4.20;;
58972;SDS011;44750;52.040;7.472;2022-08-19T14:47:22;5.43;;;4.32;;
58972;SDS011;44750;52.040;7.472;2022-08-19T14:52:22;10.52;;;5.15;;
58972;SDS011;44750;52.040;7.472;2022-08-19T14:57:24;7.18;;;4.50;;
58972;SDS011;44750;52.040;7.472;2022-08-19T15:02:24;8.90;;;4.10;;
58972;SDS011;44750;52.040;7.472;2022-08-19T15:07:24;8.77;;;4.50;;
58972;SDS011;44750;52.040;7.472;2022-08-19T15:12:24;6.88;;;3.70;;
58972;SDS011;44750;52.040;7.472;2022-08-19T15:17:25;6.17;;;3.60;;
58972;SDS011;44750;52.040;7.472;2022-08-19T15:22:25;5.30;;;3.38;;
58972;SDS011;44750;52.040;7.472;2022-08-19T15:27:25;5.28;;;3.63;;
58972;SDS011;44750;52.040;7.472;2022-08-19T15:32:25;7.30;;;4.00;;
58972;SDS011;44750;52.040;7.472;2022-08-19T15:37:26;6.95;;;4.00;;
58972;SDS011;44750;52.040;7.472;2022-08-19T15:42:26;10.75;;;4.32;;
58972;SDS011;44750;52.040;7.472;2022-08-19T15:47:27;6.70;;;4.47;;
58972;SDS011;44750;52.040;7.472;2022-08-19T15:52:28;5.95;;;4.18;;
58972;SDS011;44750;52.040;7.472;2022-08-19T15:57:28;7.10;;;5.03;;
58972;SDS011;44750;52.040;7.472;2022-08-19T16:02:29;9.63;;;4.60;;
58972;SDS011;44750;52.040;7.472;2022-08-19T16:07:29;6.50;;;4.75;;
58972;SDS011;44750;52.040;7.472;2022-08-19T16:12:31;8.32;;;4.30;;
58972;SDS011;44750;52.040;7.472;2022-08-19T16:17:31;6.90;;;4.50;;
58972;SDS011;44750;52.040;7.472;2022-08-19T16:22:31;8.90;;;5.53;;
58972;SDS011;44750;52.040;7.472;2022-08-19T16:27:32;9.32;;;5.55;;
58972;SDS011;44750;52.040;7.472;2022-08-19T16:32:32;9.70;;;6.00;;
58972;SDS011;44750;52.040;7.472;2022-08-19T16:37:33;8.27;;;5.88;;
58972;SDS011;44750;52.040;7.472;2022-08-19T16:42:33;9.52;;;4.95;;
58972;SDS011;44750;52.040;7.472;2022-08-19T16:47:34;8.57;;;5.40;;
58972;SDS011;44750;52.040;7.472;2022-08-19T16:52:35;11.88;;;5.40;;
58972;SDS011;44750;52.040;7.472;2022-08-19T16:57:37;8.32;;;4.90;;
58972;SDS011;44750;52.040;7.472;2022-08-19T17:02:37;7.47;;;4.65;;
58972;SDS011;44750;52.040;7.472;2022-08-19T17:07:37;10.15;;;4.10;;
58972;SDS011;44750;52.040;7.472;2022-08-19T17:12:38;9.20;;;4.55;;
58972;SDS011;44750;52.040;7.472;2022-08-19T17:17:38;6.05;;;3.88;;
58972;SDS011;44750;52.040;7.472;2022-08-19T17:22:38;7.53;;;3.72;;
58972;SDS011;44750;52.040;7.472;2022-08-19T17:27:38;5.03;;;3.03;;
58972;SDS011;44750;52.040;7.472;2022-08-19T17:32:38;5.13;;;3.10;;
58972;SDS011;44750;52.040;7.472;2022-08-19T17:37:39;12.70;;;3.00;;
58972;SDS011;44750;52.040;7.472;2022-08-19T17:42:39;5.13;;;2.92;;
58972;SDS011;44750;52.040;7.472;2022-08-19T17:47:39;6.30;;;3.13;;
58972;SDS011;44750;52.040;7.472;2022-08-19T17:52:40;4.17;;;2.67;;
58972;SDS011;44750;52.040;7.472;2022-08-19T17:57:40;4.50;;;2.78;;
58972;SDS011;44750;52.040;7.472;2022-08-19T18:02:51;4.60;;;2.85;;
58972;SDS011;44750;52.040;7.472;2022-08-19T18:07:54;4.32;;;3.00;;
58972;SDS011;44750;52.040;7.472;2022-08-19T18:12:55;4.00;;;2.88;;
58972;SDS011;44750;52.040;7.472;2022-08-19T18:17:55;12.77;;;8.85;;
58972;SDS011;44750;52.040;7.472;2022-08-19T18:22:56;19.27;;;12.90;;
58972;SDS011;44750;52.040;7.472;2022-08-19T18:27:57;20.35;;;14.65;;
58972;SDS011;44750;52.040;7.472;2022-08-19T18:33:00;20.80;;;15.67;;
58972;SDS011;44750;52.040;7.472;2022-08-19T18:38:02;22.27;;;14.93;;
58972;SDS011;44750;52.040;7.472;2022-08-19T18:43:03;23.43;;;15.10;;
58972;SDS011;44750;52.040;7.472;2022-08-19T18:48:04;25.52;;;15.27;;
58972;SDS011;44750;52.040;7.472;2022-08-19T18:53:04;24.35;;;14.45;;
58972;SDS011;44750;52.040;7.472;2022-08-19T18:58:04;22.88;;;15.98;;
58972;SDS011;44750;52.040;7.472;2022-08-19T19:03:05;26.40;;;16.73;;
58972;SDS011;44750;52.040;7.472;2022-08-19T19:08:05;22.90;;;16.40;;
58972;SDS011;44750;52.040;7.472;2022-08-19T19:13:05;30.03;;;17.80;;
58972;SDS011;44750;52.040;7.472;2022-08-19T19:18:05;22.75;;;15.30;;
58972;SDS011;44750;52.040;7.472;2022-08-19T19:23:06;21.75;;;14.60;;
58972;SDS011;44750;52.040;7.472;2022-08-19T19:28:06;22.30;;;13.70;;
58972;SDS011;44750;52.040;7.472;2022-08-19T19:33:06;20.02;;;13.20;;
58972;SDS011;44750;52.040;7.472;2022-08-19T19:38:06;19.83;;;13.40;;
58972;SDS011;44750;52.040;7.472;2022-08-19T19:43:07;22.00;;;14.52;;
58972;SDS011;44750;52.040;7.472;2022-08-19T19:48:07;22.52;;;14.55;;
58972;SDS011;44750;52.040;7.472;2022-08-19T19:53:08;20.90;;;15.48;;
58972;SDS011;44750;52.040;7.472;2022-08-19T19:58:08;20.90;;;15.45;;
58972;SDS011;44750;52.040;7.472;2022-08-19T20:03:08;21.55;;;15.30;;
58972;SDS011;44750;52.040;7.472;2022-08-19T20:08:08;22.42;;;15.00;;
58972;SDS011;44750;52.040;7.472;2022-08-19T20:13:10;20.40;;;14.77;;
58972;SDS011;44750;52.040;7.472;2022-08-19T20:18:11;21.33;;;14.30;;
58972;SDS011;44750;52.040;7.472;2022-08-19T20:23:11;25.00;;;15.88;;
58972;SDS011;44750;52.040;7.472;2022-08-19T20:28:12;22.13;;;16.38;;
58972;SDS011;44750;52.040;7.472;2022-08-19T20:33:12;30.13;;;17.55;;
58972;SDS011;44750;52.040;7.472;2022-08-19T20:38:13;22.10;;;16.27;;
58972;SDS011;44750;52.040;7.472;2022-08-19T20:43:13;22.20;;;15.70;;
58972;SDS011;44750;52.040;7.472;2022-08-19T20:48:13;22.20;;;15.70;;
58972;SDS011;44750;52.040;7.472;2022-08-19T20:53:15;23.35;;;15.55;;
58972;SDS011;44750;52.040;7.472;2022-08-19T20:58:18;22.00;;;15.05;;
58972;SDS011;44750;52.040;7.472;2022-08-19T21:03:21;21.80;;;16.10;;
58972;SDS011;44750;52.040;7.472;2022-08-19T21:13:24;20.30;;;14.63;;
58972;SDS011;44750;52.040;7.472;2022-08-19T21:18:24;21.17;;;13.98;;
58972;SDS011;44750;52.040;7.472;2022-08-19T21:23:25;18.92;;;14.77;;
58972;SDS011;44750;52.040;7.472;2022-08-19T21:28:28;22.73;;;13.73;;
58972;SDS011;44750;52.040;7.472;2022-08-19T21:33:32;18.80;;;12.63;;
58972;SDS011;44750;52.040;7.472;2022-08-19T21:38:32;19.50;;;13.90;;
58972;SDS011;44750;52.040;7.472;2022-08-19T21:43:33;18.57;;;12.77;;
58972;SDS011;44750;52.040;7.472;2022-08-19T21:48:34;18.42;;;13.18;;
58972;SDS011;44750;52.040;7.472;2022-08-19T21:53:35;18.60;;;13.05;;
58972;SDS011;44750;52.040;7.472;2022-08-19T21:58:35;19.85;;;13.18;;
58972;SDS011;44750;52.040;7.472;2022-08-19T22:03:36;18.25;;;12.43;;
58972;SDS011;44750;52.040;7.472;2022-08-19T22:08:37;18.83;;;11.48;;
58972;SDS011;44750;52.040;7.472;2022-08-19T22:13:37;15.43;;;11.68;;
58972;SDS011;44750;52.040;7.472;2022-08-19T22:18:37;14.57;;;11.13;;
58972;SDS011;44750;52.040;7.472;2022-08-19T22:23:39;15.23;;;11.77;;
58972;SDS011;44750;52.040;7.472;2022-08-19T22:28:40;16.48;;;11.57;;
58972;SDS011;44750;52.040;7.472;2022-08-19T22:33:41;16.17;;;11.45;;
58972;SDS011;44750;52.040;7.472;2022-08-19T22:38:41;15.90;;;11.55;;
58972;SDS011;44750;52.040;7.472;2022-08-19T22:43:42;19.63;;;12.20;;
58972;SDS011;44750;52.040;7.472;2022-08-19T22:48:42;16.67;;;11.00;;
58972;SDS011;44750;52.040;7.472;2022-08-19T22:53:43;16.27;;;11.77;;
58972;SDS011;44750;52.040;7.472;2022-08-19T22:58:45;13.80;;;11.30;;
58972;SDS011;44750;52.040;7.472;2022-08-19T23:03:46;18.02;;;12.55;;
58972;SDS011;44750;52.040;7.472;2022-08-19T23:08:47;18.98;;;13.13;;
58972;SDS011;44750;52.040;7.472;2022-08-19T23:13:47;17.00;;;12.18;;
58972;SDS011;44750;52.040;7.472;2022-08-19T23:18:47;18.27;;;12.52;;
58972;SDS011;44750;52.040;7.472;2022-08-19T23:23:47;19.02;;;12.65;;
58972;SDS011;44750;52.040;7.472;2022-08-19T23:28:48;20.48;;;12.95;;
58972;SDS011;44750;52.040;7.472;2022-08-19T23:33:48;19.93;;;12.60;;
58972;SDS011;44750;52.040;7.472;2022-08-19T23:38:49;17.20;;;11.88;;
58972;SDS011;44750;52.040;7.472;2022-08-19T23:43:50;17.42;;;11.65;;
58972;SDS011;44750;52.040;7.472;2022-08-19T23:48:50;18.77;;;12.57;;
58972;SDS011;44750;52.040;7.472;2022-08-19T23:53:50;16.08;;;12.43;;
58972;SDS011;44750;52.040;7.472;2022-08-19T23:58:50;25.70;;;14.55;;
